Grandview, Tennessee
Current Conditions -  °F | °C
As of 3:53 PM on Tuesday 21 Oct 2014 (Local Time) from KCSV Reporting Station
Few Clouds Few Clouds  
Wind Chill: 17°   Ceiling: Unl
Heat Index: 17°   Visibility: 10mi
Dew Point:   Wind: 12mph
Humidity: 46%   Direction: 340°NNW
Pressure: 30.03"   Gusts: NA
Location:  35.74°N, 84.84°W
Report Text: KCSV 211953Z AUTO 34010KT 10SM FEW045 17/06 A3003 RMK AO2 SLP160 T01720056
Loading
Personal Weather Stations






























Interactive Weather Map
Tropical Storm Tracking
New forecast layout! Learn more

10-Day Weather Forecast

Advertisements
Track Severe Weather on mobile